sensor_id;sensor_type;location;lat;lon;timestamp;temperature;humidity
73133;DHT22;61320;52.008;4.530;2023-07-20T00:02:08;17.97;83.56
73133;DHT22;61320;52.008;4.530;2023-07-20T00:04:34;17.92;83.94
73133;DHT22;61320;52.008;4.530;2023-07-20T00:07:00;17.90;84.17
73133;DHT22;61320;52.008;4.530;2023-07-20T00:09:28;17.87;84.25
73133;DHT22;61320;52.008;4.530;2023-07-20T00:11:54;17.86;84.15
73133;DHT22;61320;52.008;4.530;2023-07-20T00:14:22;17.82;84.28
73133;DHT22;61320;52.008;4.530;2023-07-20T00:16:50;17.85;84.36
73133;DHT22;61320;52.008;4.530;2023-07-20T00:19:24;17.82;84.39
73133;DHT22;61320;52.008;4.530;2023-07-20T00:21:49;17.82;84.33
73133;DHT22;61320;52.008;4.530;2023-07-20T00:24:15;17.83;84.28
73133;DHT22;61320;52.008;4.530;2023-07-20T00:26:40;17.78;84.19
73133;DHT22;61320;52.008;4.530;2023-07-20T00:29:06;17.78;84.34
73133;DHT22;61320;52.008;4.530;2023-07-20T00:31:31;17.78;84.42
73133;DHT22;61320;52.008;4.530;2023-07-20T00:33:57;17.73;84.40
73133;DHT22;61320;52.008;4.530;2023-07-20T00:36:23;17.71;84.37
73133;DHT22;61320;52.008;4.530;2023-07-20T00:38:48;17.73;84.32
73133;DHT22;61320;52.008;4.530;2023-07-20T00:41:16;17.68;84.12
73133;DHT22;61320;52.008;4.530;2023-07-20T00:46:13;17.59;83.97
73133;DHT22;61320;52.008;4.530;2023-07-20T00:48:42;17.53;83.94
73133;DHT22;61320;52.008;4.530;2023-07-20T00:51:09;17.49;84.01
73133;DHT22;61320;52.008;4.530;2023-07-20T00:53:36;17.46;84.29
73133;DHT22;61320;52.008;4.530;2023-07-20T00:56:02;17.39;84.07
73133;DHT22;61320;52.008;4.530;2023-07-20T00:58:33;17.34;84.10
73133;DHT22;61320;52.008;4.530;2023-07-20T01:00:58;17.31;84.05
73133;DHT22;61320;52.008;4.530;2023-07-20T01:03:24;17.28;83.91
73133;DHT22;61320;52.008;4.530;2023-07-20T01:06:14;17.18;83.97
73133;DHT22;61320;52.008;4.530;2023-07-20T01:14:12;17.06;83.94
73133;DHT22;61320;52.008;4.530;2023-07-20T01:16:38;17.06;83.88
73133;DHT22;61320;52.008;4.530;2023-07-20T01:19:06;16.99;83.87
73133;DHT22;61320;52.008;4.530;2023-07-20T01:27:49;16.85;83.67
73133;DHT22;61320;52.008;4.530;2023-07-20T01:30:45;16.80;83.74
73133;DHT22;61320;52.008;4.530;2023-07-20T01:33:14;16.79;83.72
73133;DHT22;61320;52.008;4.530;2023-07-20T01:35:51;16.74;83.76
73133;DHT22;61320;52.008;4.530;2023-07-20T01:52:55;16.59;83.79
73133;DHT22;61320;52.008;4.530;2023-07-20T01:55:20;16.59;83.65
73133;DHT22;61320;52.008;4.530;2023-07-20T01:57:46;16.55;83.65
73133;DHT22;61320;52.008;4.530;2023-07-20T02:00:12;16.52;83.63
73133;DHT22;61320;52.008;4.530;2023-07-20T02:02:37;16.49;83.80
73133;DHT22;61320;52.008;4.530;2023-07-20T02:05:03;16.49;83.72
73133;DHT22;61320;52.008;4.530;2023-07-20T02:07:28;16.45;83.71
73133;DHT22;61320;52.008;4.530;2023-07-20T02:09:54;16.45;83.80
73133;DHT22;61320;52.008;4.530;2023-07-20T02:12:19;16.41;83.81
73133;DHT22;61320;52.008;4.530;2023-07-20T02:14:45;16.42;83.85
73133;DHT22;61320;52.008;4.530;2023-07-20T02:17:10;16.41;83.83
73133;DHT22;61320;52.008;4.530;2023-07-20T02:19:37;16.39;83.90
73133;DHT22;61320;52.008;4.530;2023-07-20T02:22:02;16.43;83.84
73133;DHT22;61320;52.008;4.530;2023-07-20T02:24:28;16.43;83.87
73133;DHT22;61320;52.008;4.530;2023-07-20T02:26:53;16.41;83.89
73133;DHT22;61320;52.008;4.530;2023-07-20T02:29:19;16.42;83.96
73133;DHT22;61320;52.008;4.530;2023-07-20T02:31:44;16.39;83.90
73133;DHT22;61320;52.008;4.530;2023-07-20T02:34:10;16.41;83.93
73133;DHT22;61320;52.008;4.530;2023-07-20T02:36:35;16.41;83.93
73133;DHT22;61320;52.008;4.530;2023-07-20T02:39:01;16.38;83.85
73133;DHT22;61320;52.008;4.530;2023-07-20T02:41:33;16.39;83.83
73133;DHT22;61320;52.008;4.530;2023-07-20T02:43:59;16.38;83.87
73133;DHT22;61320;52.008;4.530;2023-07-20T02:46:25;16.38;83.86
73133;DHT22;61320;52.008;4.530;2023-07-20T02:48:50;16.36;83.83
73133;DHT22;61320;52.008;4.530;2023-07-20T02:51:16;16.35;83.80
73133;DHT22;61320;52.008;4.530;2023-07-20T02:53:42;16.33;83.82
73133;DHT22;61320;52.008;4.530;2023-07-20T02:56:07;16.38;83.86
73133;DHT22;61320;52.008;4.530;2023-07-20T02:58:34;16.35;83.82
73133;DHT22;61320;52.008;4.530;2023-07-20T03:01:05;16.38;83.91
73133;DHT22;61320;52.008;4.530;2023-07-20T03:03:32;16.36;83.94
73133;DHT22;61320;52.008;4.530;2023-07-20T03:06:01;16.36;83.88
73133;DHT22;61320;52.008;4.530;2023-07-20T03:08:30;16.39;83.92
73133;DHT22;61320;52.008;4.530;2023-07-20T03:10:56;16.39;83.79
73133;DHT22;61320;52.008;4.530;2023-07-20T03:13:21;16.38;83.88
73133;DHT22;61320;52.008;4.530;2023-07-20T03:15:47;16.38;83.87
73133;DHT22;61320;52.008;4.530;2023-07-20T03:18:13;16.33;83.76
73133;DHT22;61320;52.008;4.530;2023-07-20T03:20:38;16.35;83.90
73133;DHT22;61320;52.008;4.530;2023-07-20T03:23:04;16.32;83.77
73133;DHT22;61320;52.008;4.530;2023-07-20T03:25:29;16.35;83.77
73133;DHT22;61320;52.008;4.530;2023-07-20T03:27:55;16.32;83.74
73133;DHT22;61320;52.008;4.530;2023-07-20T03:30:23;16.29;83.75
73133;DHT22;61320;52.008;4.530;2023-07-20T03:32:49;16.26;83.65
73133;DHT22;61320;52.008;4.530;2023-07-20T03:35:14;16.28;83.53
73133;DHT22;61320;52.008;4.530;2023-07-20T03:37:41;16.19;83.62
73133;DHT22;61320;52.008;4.530;2023-07-20T03:40:07;16.16;83.62
73133;DHT22;61320;52.008;4.530;2023-07-20T03:42:33;16.16;83.58
73133;DHT22;61320;52.008;4.530;2023-07-20T03:44:59;16.14;83.63
73133;DHT22;61320;52.008;4.530;2023-07-20T03:47:24;16.14;83.63
73133;DHT22;61320;52.008;4.530;2023-07-20T03:49:50;16.12;83.63
73133;DHT22;61320;52.008;4.530;2023-07-20T03:52:15;16.09;83.60
73133;DHT22;61320;52.008;4.530;2023-07-20T03:54:41;16.09;83.64
73133;DHT22;61320;52.008;4.530;2023-07-20T03:57:07;16.08;83.69
73133;DHT22;61320;52.008;4.530;2023-07-20T03:59:32;16.11;83.72
73133;DHT22;61320;52.008;4.530;2023-07-20T04:01:59;16.09;83.67
73133;DHT22;61320;52.008;4.530;2023-07-20T04:04:24;16.11;83.67
73133;DHT22;61320;52.008;4.530;2023-07-20T04:06:50;16.11;83.65
73133;DHT22;61320;52.008;4.530;2023-07-20T04:09:15;16.11;83.72
73133;DHT22;61320;52.008;4.530;2023-07-20T04:11:43;16.15;83.77
73133;DHT22;61320;52.008;4.530;2023-07-20T04:14:08;16.14;83.79
73133;DHT22;61320;52.008;4.530;2023-07-20T04:16:34;16.14;83.72
73133;DHT22;61320;52.008;4.530;2023-07-20T04:18:59;16.16;83.67
73133;DHT22;61320;52.008;4.530;2023-07-20T04:21:27;16.14;83.65
73133;DHT22;61320;52.008;4.530;2023-07-20T04:23:52;16.15;83.67
73133;DHT22;61320;52.008;4.530;2023-07-20T04:26:18;16.14;83.65
73133;DHT22;61320;52.008;4.530;2023-07-20T04:28:43;16.14;83.59
73133;DHT22;61320;52.008;4.530;2023-07-20T04:31:13;16.14;83.67
73133;DHT22;61320;52.008;4.530;2023-07-20T04:33:39;16.14;83.70
73133;DHT22;61320;52.008;4.530;2023-07-20T04:36:05;16.11;83.65
73133;DHT22;61320;52.008;4.530;2023-07-20T04:38:34;16.14;83.62
73133;DHT22;61320;52.008;4.530;2023-07-20T04:41:00;16.18;83.70
73133;DHT22;61320;52.008;4.530;2023-07-20T04:43:25;16.18;83.76
73133;DHT22;61320;52.008;4.530;2023-07-20T04:45:52;16.25;83.79
73133;DHT22;61320;52.008;4.530;2023-07-20T04:48:17;16.30;83.82
73133;DHT22;61320;52.008;4.530;2023-07-20T04:50:44;16.35;83.99
73133;DHT22;61320;52.008;4.530;2023-07-20T04:53:14;16.41;84.08
73133;DHT22;61320;52.008;4.530;2023-07-20T04:55:40;16.49;84.08
73133;DHT22;61320;52.008;4.530;2023-07-20T04:58:06;16.51;84.08
73133;DHT22;61320;52.008;4.530;2023-07-20T05:00:33;16.59;84.13
73133;DHT22;61320;52.008;4.530;2023-07-20T05:02:59;16.62;84.26
73133;DHT22;61320;52.008;4.530;2023-07-20T05:05:25;16.67;84.33
73133;DHT22;61320;52.008;4.530;2023-07-20T05:07:50;16.69;84.35
73133;DHT22;61320;52.008;4.530;2023-07-20T05:10:16;16.76;84.40
73133;DHT22;61320;52.008;4.530;2023-07-20T05:12:42;16.79;84.64
73133;DHT22;61320;52.008;4.530;2023-07-20T05:15:07;16.79;84.83
73133;DHT22;61320;52.008;4.530;2023-07-20T05:17:33;16.80;84.87
73133;DHT22;61320;52.008;4.530;2023-07-20T05:19:59;16.80;84.88
73133;DHT22;61320;52.008;4.530;2023-07-20T05:22:24;16.84;84.96
73133;DHT22;61320;52.008;4.530;2023-07-20T05:24:50;16.90;85.05
73133;DHT22;61320;52.008;4.530;2023-07-20T05:27:15;16.94;85.03
73133;DHT22;61320;52.008;4.530;2023-07-20T05:29:49;17.03;84.85
73133;DHT22;61320;52.008;4.530;2023-07-20T05:32:15;17.03;84.82
73133;DHT22;61320;52.008;4.530;2023-07-20T05:34:41;17.08;84.86
73133;DHT22;61320;52.008;4.530;2023-07-20T05:37:06;17.10;84.83
73133;DHT22;61320;52.008;4.530;2023-07-20T05:39:32;17.14;84.74
73133;DHT22;61320;52.008;4.530;2023-07-20T05:41:58;17.17;84.72
73133;DHT22;61320;52.008;4.530;2023-07-20T05:44:24;17.17;84.63
73133;DHT22;61320;52.008;4.530;2023-07-20T05:46:49;17.20;84.72
73133;DHT22;61320;52.008;4.530;2023-07-20T05:49:14;17.22;84.68
73133;DHT22;61320;52.008;4.530;2023-07-20T05:51:40;17.24;84.66
73133;DHT22;61320;52.008;4.530;2023-07-20T05:54:05;17.28;84.55
73133;DHT22;61320;52.008;4.530;2023-07-20T05:56:31;17.25;84.43
73133;DHT22;61320;52.008;4.530;2023-07-20T05:58:57;17.27;84.43
73133;DHT22;61320;52.008;4.530;2023-07-20T06:01:22;17.27;84.46
73133;DHT22;61320;52.008;4.530;2023-07-20T06:03:48;17.27;84.35
73133;DHT22;61320;52.008;4.530;2023-07-20T06:06:13;17.24;84.30
73133;DHT22;61320;52.008;4.530;2023-07-20T06:08:40;17.27;84.32
73133;DHT22;61320;52.008;4.530;2023-07-20T06:11:05;17.28;84.19
73133;DHT22;61320;52.008;4.530;2023-07-20T06:13:31;17.30;84.25
73133;DHT22;61320;52.008;4.530;2023-07-20T06:15:56;17.28;84.08
73133;DHT22;61320;52.008;4.530;2023-07-20T06:18:23;17.30;84.11
73133;DHT22;61320;52.008;4.530;2023-07-20T06:20:50;17.28;84.00
73133;DHT22;61320;52.008;4.530;2023-07-20T06:23:16;17.27;83.93
73133;DHT22;61320;52.008;4.530;2023-07-20T06:25:41;17.25;83.91
73133;DHT22;61320;52.008;4.530;2023-07-20T06:28:07;17.25;83.86
73133;DHT22;61320;52.008;4.530;2023-07-20T06:30:34;17.24;83.77
73133;DHT22;61320;52.008;4.530;2023-07-20T06:33:00;17.24;83.46
73133;DHT22;61320;52.008;4.530;2023-07-20T06:35:25;17.20;83.43
73133;DHT22;61320;52.008;4.530;2023-07-20T06:37:51;17.18;83.44
73133;DHT22;61320;52.008;4.530;2023-07-20T06:40:17;17.17;83.46
73133;DHT22;61320;52.008;4.530;2023-07-20T06:42:43;17.17;83.55
73133;DHT22;61320;52.008;4.530;2023-07-20T06:45:09;17.20;83.54
73133;DHT22;61320;52.008;4.530;2023-07-20T06:47:35;17.20;83.54
73133;DHT22;61320;52.008;4.530;2023-07-20T06:50:00;17.17;83.17
73133;DHT22;61320;52.008;4.530;2023-07-20T06:52:25;17.15;83.36
73133;DHT22;61320;52.008;4.530;2023-07-20T06:54:54;17.15;82.98
73133;DHT22;61320;52.008;4.530;2023-07-20T06:57:19;17.10;82.89
73133;DHT22;61320;52.008;4.530;2023-07-20T06:59:45;17.10;83.03
73133;DHT22;61320;52.008;4.530;2023-07-20T07:02:10;17.08;83.09
73133;DHT22;61320;52.008;4.530;2023-07-20T07:04:36;17.11;83.16
73133;DHT22;61320;52.008;4.530;2023-07-20T07:07:01;17.11;82.94
73133;DHT22;61320;52.008;4.530;2023-07-20T07:09:28;17.15;83.12
73133;DHT22;61320;52.008;4.530;2023-07-20T07:11:54;17.15;83.10
73133;DHT22;61320;52.008;4.530;2023-07-20T07:14:20;17.18;82.71
73133;DHT22;61320;52.008;4.530;2023-07-20T07:16:45;17.18;82.82
73133;DHT22;61320;52.008;4.530;2023-07-20T07:19:11;17.18;82.69
73133;DHT22;61320;52.008;4.530;2023-07-20T07:21:36;17.21;82.69
73133;DHT22;61320;52.008;4.530;2023-07-20T07:24:02;17.25;82.99
73133;DHT22;61320;52.008;4.530;2023-07-20T07:26:29;17.27;82.98
73133;DHT22;61320;52.008;4.530;2023-07-20T07:28:54;17.30;83.00
73133;DHT22;61320;52.008;4.530;2023-07-20T07:31:20;17.35;82.76
73133;DHT22;61320;52.008;4.530;2023-07-20T07:33:46;17.35;82.85
73133;DHT22;61320;52.008;4.530;2023-07-20T07:36:11;17.41;82.68
73133;DHT22;61320;52.008;4.530;2023-07-20T07:38:37;17.43;82.62
73133;DHT22;61320;52.008;4.530;2023-07-20T07:41:03;17.49;81.83
73133;DHT22;61320;52.008;4.530;2023-07-20T07:43:29;17.51;82.32
73133;DHT22;61320;52.008;4.530;2023-07-20T07:45:54;17.55;82.28
73133;DHT22;61320;52.008;4.530;2023-07-20T07:48:20;17.61;82.39
73133;DHT22;61320;52.008;4.530;2023-07-20T07:50:47;17.69;82.43
73133;DHT22;61320;52.008;4.530;2023-07-20T07:53:12;17.83;83.10
73133;DHT22;61320;52.008;4.530;2023-07-20T07:55:38;18.01;80.78
73133;DHT22;61320;52.008;4.530;2023-07-20T07:58:04;18.03;80.17
73133;DHT22;61320;52.008;4.530;2023-07-20T08:00:30;18.10;80.17
73133;DHT22;61320;52.008;4.530;2023-07-20T08:02:55;18.18;80.38
73133;DHT22;61320;52.008;4.530;2023-07-20T08:05:20;18.27;80.29
73133;DHT22;61320;52.008;4.530;2023-07-20T08:07:46;18.44;80.31
73133;DHT22;61320;52.008;4.530;2023-07-20T08:10:11;18.48;79.60
73133;DHT22;61320;52.008;4.530;2023-07-20T08:12:37;18.54;81.00
73133;DHT22;61320;52.008;4.530;2023-07-20T08:15:03;18.59;81.48
73133;DHT22;61320;52.008;4.530;2023-07-20T08:17:29;18.62;81.05
73133;DHT22;61320;52.008;4.530;2023-07-20T08:19:57;18.68;80.79
73133;DHT22;61320;52.008;4.530;2023-07-20T08:22:23;18.65;80.87
73133;DHT22;61320;52.008;4.530;2023-07-20T08:24:48;18.67;80.97
73133;DHT22;61320;52.008;4.530;2023-07-20T08:27:14;18.65;81.30
73133;DHT22;61320;52.008;4.530;2023-07-20T08:29:39;18.69;81.70
73133;DHT22;61320;52.008;4.530;2023-07-20T08:32:06;18.68;81.50
73133;DHT22;61320;52.008;4.530;2023-07-20T08:34:31;18.67;81.22
73133;DHT22;61320;52.008;4.530;2023-07-20T08:36:58;18.68;80.41
73133;DHT22;61320;52.008;4.530;2023-07-20T08:39:23;18.62;80.45
73133;DHT22;61320;52.008;4.530;2023-07-20T08:41:50;18.65;80.16
73133;DHT22;61320;52.008;4.530;2023-07-20T08:44:17;18.68;79.41
73133;DHT22;61320;52.008;4.530;2023-07-20T08:46:43;18.64;76.55
73133;DHT22;61320;52.008;4.530;2023-07-20T08:49:11;18.61;79.41
73133;DHT22;61320;52.008;4.530;2023-07-20T08:51:37;18.61;79.29
73133;DHT22;61320;52.008;4.530;2023-07-20T08:54:03;18.64;78.77
73133;DHT22;61320;52.008;4.530;2023-07-20T08:56:31;18.64;78.76
73133;DHT22;61320;52.008;4.530;2023-07-20T08:58:59;18.72;78.38
73133;DHT22;61320;52.008;4.530;2023-07-20T09:01:27;18.76;78.57
73133;DHT22;61320;52.008;4.530;2023-07-20T09:03:53;18.79;78.82
73133;DHT22;61320;52.008;4.530;2023-07-20T09:06:19;18.87;78.17
73133;DHT22;61320;52.008;4.530;2023-07-20T09:08:44;18.96;77.74
73133;DHT22;61320;52.008;4.530;2023-07-20T09:11:12;19.08;78.89
73133;DHT22;61320;52.008;4.530;2023-07-20T09:13:41;19.16;77.96
73133;DHT22;61320;52.008;4.530;2023-07-20T09:16:06;19.20;78.13
73133;DHT22;61320;52.008;4.530;2023-07-20T09:18:32;19.24;77.16
73133;DHT22;61320;52.008;4.530;2023-07-20T09:21:04;19.27;76.98
73133;DHT22;61320;52.008;4.530;2023-07-20T09:23:38;19.29;76.35
73133;DHT22;61320;52.008;4.530;2023-07-20T09:26:12;19.36;76.77
73133;DHT22;61320;52.008;4.530;2023-07-20T09:29:05;19.50;76.56
73133;DHT22;61320;52.008;4.530;2023-07-20T09:31:30;19.64;75.81
73133;DHT22;61320;52.008;4.530;2023-07-20T09:33:55;19.82;76.56
73133;DHT22;61320;52.008;4.530;2023-07-20T09:36:21;19.99;75.90
73133;DHT22;61320;52.008;4.530;2023-07-20T09:38:47;20.06;69.76
73133;DHT22;61320;52.008;4.530;2023-07-20T09:41:15;20.11;68.73
73133;DHT22;61320;52.008;4.530;2023-07-20T09:43:45;20.08;68.66
73133;DHT22;61320;52.008;4.530;2023-07-20T09:46:11;20.06;69.40
73133;DHT22;61320;52.008;4.530;2023-07-20T09:48:39;19.99;68.96
73133;DHT22;61320;52.008;4.530;2023-07-20T09:51:06;20.01;71.27
73133;DHT22;61320;52.008;4.530;2023-07-20T09:53:33;20.02;73.73
73133;DHT22;61320;52.008;4.530;2023-07-20T09:55:59;20.05;71.57
73133;DHT22;61320;52.008;4.530;2023-07-20T09:58:26;20.06;70.44
73133;DHT22;61320;52.008;4.530;2023-07-20T10:00:57;20.06;71.04
73133;DHT22;61320;52.008;4.530;2023-07-20T10:03:29;20.05;71.13
73133;DHT22;61320;52.008;4.530;2023-07-20T10:06:04;20.04;72.84
73133;DHT22;61320;52.008;4.530;2023-07-20T10:08:32;20.04;74.42
73133;DHT22;61320;52.008;4.530;2023-07-20T10:11:02;20.04;74.85
73133;DHT22;61320;52.008;4.530;2023-07-20T10:13:29;20.02;72.67
73133;DHT22;61320;52.008;4.530;2023-07-20T10:17:06;19.95;67.09
73133;DHT22;61320;52.008;4.530;2023-07-20T10:19:23;20.12;68.18
73133;DHT22;61320;52.008;4.530;2023-07-20T10:21:56;20.37;70.17
73133;DHT22;61320;52.008;4.530;2023-07-20T10:24:23;20.79;70.03
73133;DHT22;61320;52.008;4.530;2023-07-20T10:26:54;21.20;65.18
73133;DHT22;61320;52.008;4.530;2023-07-20T10:31:48;22.01;71.22
73133;DHT22;61320;52.008;4.530;2023-07-20T10:42:00;22.16;66.29
73133;DHT22;61320;52.008;4.530;2023-07-20T10:44:29;21.96;65.71
73133;DHT22;61320;52.008;4.530;2023-07-20T10:47:03;21.78;64.58
73133;DHT22;61320;52.008;4.530;2023-07-20T10:49:34;21.71;69.11
73133;DHT22;61320;52.008;4.530;2023-07-20T10:52:05;21.97;62.25
73133;DHT22;61320;52.008;4.530;2023-07-20T10:54:33;22.37;63.97
73133;DHT22;61320;52.008;4.530;2023-07-20T10:57:29;22.89;59.04
73133;DHT22;61320;52.008;4.530;2023-07-20T11:00:12;23.13;61.88
73133;DHT22;61320;52.008;4.530;2023-07-20T11:02:44;23.05;62.17
73133;DHT22;61320;52.008;4.530;2023-07-20T11:05:32;22.98;63.78
73133;DHT22;61320;52.008;4.530;2023-07-20T11:21:24;27.15;62.52
73133;DHT22;61320;52.008;4.530;2023-07-20T11:23:52;27.83;64.13
73133;DHT22;61320;52.008;4.530;2023-07-20T11:28:43;27.67;51.52
73133;DHT22;61320;52.008;4.530;2023-07-20T11:31:09;27.46;58.84
73133;DHT22;61320;52.008;4.530;2023-07-20T11:33:34;27.25;64.30
73133;DHT22;61320;52.008;4.530;2023-07-20T11:36:22;27.43;63.61
73133;DHT22;61320;52.008;4.530;2023-07-20T11:38:51;27.71;53.37
73133;DHT22;61320;52.008;4.530;2023-07-20T11:41:17;27.73;57.43
73133;DHT22;61320;52.008;4.530;2023-07-20T11:43:42;27.94;55.11
73133;DHT22;61320;52.008;4.530;2023-07-20T11:46:10;27.91;57.53
73133;DHT22;61320;52.008;4.530;2023-07-20T11:48:36;27.54;58.80
73133;DHT22;61320;52.008;4.530;2023-07-20T11:53:28;27.47;52.38
73133;DHT22;61320;52.008;4.530;2023-07-20T11:55:54;27.60;55.10
73133;DHT22;61320;52.008;4.530;2023-07-20T11:58:20;27.64;54.50
73133;DHT22;61320;52.008;4.530;2023-07-20T12:00:47;27.46;55.00
73133;DHT22;61320;52.008;4.530;2023-07-20T12:03:13;27.20;52.98
73133;DHT22;61320;52.008;4.530;2023-07-20T12:05:39;26.94;54.61
73133;DHT22;61320;52.008;4.530;2023-07-20T12:08:05;26.77;52.77
73133;DHT22;61320;52.008;4.530;2023-07-20T12:10:33;26.61;49.56
73133;DHT22;61320;52.008;4.530;2023-07-20T12:13:02;26.27;56.22
73133;DHT22;61320;52.008;4.530;2023-07-20T12:15:32;25.92;50.72
73133;DHT22;61320;52.008;4.530;2023-07-20T12:18:00;25.57;52.36
73133;DHT22;61320;52.008;4.530;2023-07-20T12:20:36;25.10;50.92
73133;DHT22;61320;52.008;4.530;2023-07-20T12:25:41;24.52;63.43
73133;DHT22;61320;52.008;4.530;2023-07-20T12:28:11;24.30;57.75
73133;DHT22;61320;52.008;4.530;2023-07-20T12:30:39;24.51;59.94
73133;DHT22;61320;52.008;4.530;2023-07-20T12:33:05;24.84;62.40
73133;DHT22;61320;52.008;4.530;2023-07-20T12:37:57;25.57;58.09
73133;DHT22;61320;52.008;4.530;2023-07-20T12:40:23;25.81;58.00
73133;DHT22;61320;52.008;4.530;2023-07-20T12:42:49;25.92;56.47
73133;DHT22;61320;52.008;4.530;2023-07-20T12:45:15;25.96;51.30
73133;DHT22;61320;52.008;4.530;2023-07-20T12:47:43;25.97;57.77
73133;DHT22;61320;52.008;4.530;2023-07-20T12:50:12;25.99;54.65
73133;DHT22;61320;52.008;4.530;2023-07-20T12:52:39;25.96;52.18
73133;DHT22;61320;52.008;4.530;2023-07-20T12:55:06;25.78;55.34
73133;DHT22;61320;52.008;4.530;2023-07-20T12:57:34;25.61;56.15
73133;DHT22;61320;52.008;4.530;2023-07-20T13:00:03;25.46;54.28
73133;DHT22;61320;52.008;4.530;2023-07-20T13:02:32;25.34;52.39
73133;DHT22;61320;52.008;4.530;2023-07-20T13:04:58;25.23;59.18
73133;DHT22;61320;52.008;4.530;2023-07-20T13:07:35;25.04;58.48
73133;DHT22;61320;52.008;4.530;2023-07-20T13:10:03;24.90;57.83
73133;DHT22;61320;52.008;4.530;2023-07-20T13:12:33;24.73;58.99
73133;DHT22;61320;52.008;4.530;2023-07-20T13:17:26;24.66;60.03
73133;DHT22;61320;52.008;4.530;2023-07-20T13:19:53;24.65;59.56
73133;DHT22;61320;52.008;4.530;2023-07-20T13:22:18;24.70;61.70
73133;DHT22;61320;52.008;4.530;2023-07-20T13:24:53;24.73;59.46
73133;DHT22;61320;52.008;4.530;2023-07-20T13:27:19;24.73;57.18
73133;DHT22;61320;52.008;4.530;2023-07-20T13:29:45;24.70;58.25
73133;DHT22;61320;52.008;4.530;2023-07-20T13:32:14;24.76;53.98
73133;DHT22;61320;52.008;4.530;2023-07-20T13:34:48;24.77;58.97
73133;DHT22;61320;52.008;4.530;2023-07-20T13:37:14;24.84;56.26
73133;DHT22;61320;52.008;4.530;2023-07-20T13:39:41;25.00;55.42
73133;DHT22;61320;52.008;4.530;2023-07-20T13:42:07;25.14;57.95
73133;DHT22;61320;52.008;4.530;2023-07-20T13:44:34;25.14;56.53
73133;DHT22;61320;52.008;4.530;2023-07-20T13:47:00;25.14;55.26
73133;DHT22;61320;52.008;4.530;2023-07-20T13:49:27;25.10;55.72
73133;DHT22;61320;52.008;4.530;2023-07-20T13:51:53;25.07;54.06
73133;DHT22;61320;52.008;4.530;2023-07-20T13:54:18;25.08;55.43
73133;DHT22;61320;52.008;4.530;2023-07-20T13:56:43;25.14;54.96
73133;DHT22;61320;52.008;4.530;2023-07-20T13:59:09;25.18;55.58
73133;DHT22;61320;52.008;4.530;2023-07-20T14:01:34;25.34;55.40
73133;DHT22;61320;52.008;4.530;2023-07-20T14:04:01;25.45;53.90
73133;DHT22;61320;52.008;4.530;2023-07-20T14:06:32;25.53;53.18
73133;DHT22;61320;52.008;4.530;2023-07-20T14:08:58;25.66;55.33
73133;DHT22;61320;52.008;4.530;2023-07-20T14:11:27;25.75;51.29
73133;DHT22;61320;52.008;4.530;2023-07-20T14:13:53;25.76;53.37
73133;DHT22;61320;52.008;4.530;2023-07-20T14:16:21;25.79;52.94
73133;DHT22;61320;52.008;4.530;2023-07-20T14:18:47;25.75;50.54
73133;DHT22;61320;52.008;4.530;2023-07-20T14:21:14;25.71;54.14
73133;DHT22;61320;52.008;4.530;2023-07-20T14:23:40;25.65;53.71
73133;DHT22;61320;52.008;4.530;2023-07-20T14:26:05;25.57;53.21
73133;DHT22;61320;52.008;4.530;2023-07-20T14:55:12;24.93;50.27
73133;DHT22;61320;52.008;4.530;2023-07-20T14:57:38;24.83;46.80
73133;DHT22;61320;52.008;4.530;2023-07-20T15:29:30;24.05;53.40
73133;DHT22;61320;52.008;4.530;2023-07-20T15:31:56;24.00;52.29
73133;DHT22;61320;52.008;4.530;2023-07-20T15:34:21;23.98;53.73
73133;DHT22;61320;52.008;4.530;2023-07-20T15:36:47;23.97;53.85
73133;DHT22;61320;52.008;4.530;2023-07-20T15:39:12;24.01;55.23
73133;DHT22;61320;52.008;4.530;2023-07-20T15:41:38;24.05;52.16
73133;DHT22;61320;52.008;4.530;2023-07-20T15:44:03;24.15;54.96
73133;DHT22;61320;52.008;4.530;2023-07-20T15:49:07;24.40;54.46
73133;DHT22;61320;52.008;4.530;2023-07-20T15:51:36;24.53;53.46
73133;DHT22;61320;52.008;4.530;2023-07-20T15:54:04;24.63;53.37
73133;DHT22;61320;52.008;4.530;2023-07-20T15:56:34;24.63;50.08
73133;DHT22;61320;52.008;4.530;2023-07-20T15:59:00;24.56;48.67
73133;DHT22;61320;52.008;4.530;2023-07-20T16:01:25;24.56;45.93
73133;DHT22;61320;52.008;4.530;2023-07-20T16:03:51;24.40;47.44
73133;DHT22;61320;52.008;4.530;2023-07-20T16:06:17;24.33;51.97
73133;DHT22;61320;52.008;4.530;2023-07-20T16:08:44;24.35;50.97
73133;DHT22;61320;52.008;4.530;2023-07-20T16:11:16;24.40;48.17
73133;DHT22;61320;52.008;4.530;2023-07-20T16:13:44;24.42;50.91
73133;DHT22;61320;52.008;4.530;2023-07-20T16:16:11;24.46;50.18
73133;DHT22;61320;52.008;4.530;2023-07-20T16:18:37;24.55;49.43
73133;DHT22;61320;52.008;4.530;2023-07-20T16:21:03;24.62;51.23
73133;DHT22;61320;52.008;4.530;2023-07-20T16:23:29;24.62;48.07
73133;DHT22;61320;52.008;4.530;2023-07-20T16:25:55;24.53;50.07
73133;DHT22;61320;52.008;4.530;2023-07-20T16:28:21;24.36;50.01
73133;DHT22;61320;52.008;4.530;2023-07-20T16:30:46;24.30;50.37
73133;DHT22;61320;52.008;4.530;2023-07-20T16:33:12;24.22;50.67
73133;DHT22;61320;52.008;4.530;2023-07-20T16:35:40;24.15;52.27
73133;DHT22;61320;52.008;4.530;2023-07-20T16:38:07;24.12;48.11
73133;DHT22;61320;52.008;4.530;2023-07-20T16:40:32;24.08;50.15
73133;DHT22;61320;52.008;4.530;2023-07-20T16:42:58;24.01;50.45
73133;DHT22;61320;52.008;4.530;2023-07-20T16:45:24;23.97;49.58
73133;DHT22;61320;52.008;4.530;2023-07-20T16:47:50;23.98;49.22
73133;DHT22;61320;52.008;4.530;2023-07-20T16:50:16;24.00;51.10
73133;DHT22;61320;52.008;4.530;2023-07-20T16:52:41;24.01;50.38
73133;DHT22;61320;52.008;4.530;2023-07-20T16:55:09;24.01;50.02
73133;DHT22;61320;52.008;4.530;2023-07-20T16:57:35;24.02;50.08
73133;DHT22;61320;52.008;4.530;2023-07-20T17:00:20;24.00;47.52
73133;DHT22;61320;52.008;4.530;2023-07-20T17:03:00;23.94;49.49
73133;DHT22;61320;52.008;4.530;2023-07-20T17:06:23;23.88;49.53
73133;DHT22;61320;52.008;4.530;2023-07-20T17:09:03;23.84;50.99
73133;DHT22;61320;52.008;4.530;2023-07-20T17:11:31;23.77;49.66
73133;DHT22;61320;52.008;4.530;2023-07-20T17:14:08;23.67;50.97
73133;DHT22;61320;52.008;4.530;2023-07-20T17:16:42;23.58;46.22
73133;DHT22;61320;52.008;4.530;2023-07-20T17:19:09;23.43;49.83
73133;DHT22;61320;52.008;4.530;2023-07-20T17:21:34;23.29;50.14
73133;DHT22;61320;52.008;4.530;2023-07-20T17:24:01;23.12;47.39
73133;DHT22;61320;52.008;4.530;2023-07-20T17:26:26;22.98;49.10
73133;DHT22;61320;52.008;4.530;2023-07-20T17:28:52;22.82;47.39
73133;DHT22;61320;52.008;4.530;2023-07-20T17:31:19;22.72;48.88
73133;DHT22;61320;52.008;4.530;2023-07-20T17:33:45;22.60;48.97
73133;DHT22;61320;52.008;4.530;2023-07-20T17:36:11;22.48;49.97